sensor_id;sensor_type;location;lat;lon;timestamp;P1;durP1;ratioP1;P2;durP2;ratioP2
43891;SDS011;29555;45.350;5.578;2024-01-25T00:01:12;4.90;;;3.78;;
43891;SDS011;29555;45.350;5.578;2024-01-25T00:03:38;5.47;;;2.90;;
43891;SDS011;29555;45.350;5.578;2024-01-25T00:06:07;3.85;;;3.50;;
43891;SDS011;29555;45.350;5.578;2024-01-25T00:08:35;10.10;;;4.57;;
43891;SDS011;29555;45.350;5.578;2024-01-25T00:11:04;7.25;;;3.75;;
43891;SDS011;29555;45.350;5.578;2024-01-25T00:13:30;6.30;;;4.07;;
43891;SDS011;29555;45.350;5.578;2024-01-25T00:15:55;4.22;;;3.00;;
43891;SDS011;29555;45.350;5.578;2024-01-25T00:18:21;8.57;;;4.25;;
43891;SDS011;29555;45.350;5.578;2024-01-25T00:20:46;3.95;;;3.03;;
43891;SDS011;29555;45.350;5.578;2024-01-25T00:23:12;7.07;;;2.30;;
43891;SDS011;29555;45.350;5.578;2024-01-25T00:25:37;3.67;;;2.90;;
43891;SDS011;29555;45.350;5.578;2024-01-25T00:28:03;5.32;;;2.63;;
43891;SDS011;29555;45.350;5.578;2024-01-25T00:30:29;3.92;;;3.42;;
43891;SDS011;29555;45.350;5.578;2024-01-25T00:32:55;5.22;;;3.78;;
43891;SDS011;29555;45.350;5.578;2024-01-25T00:35:21;6.70;;;3.58;;
43891;SDS011;29555;45.350;5.578;2024-01-25T00:37:47;5.50;;;4.10;;
43891;SDS011;29555;45.350;5.578;2024-01-25T00:40:13;3.78;;;3.10;;
43891;SDS011;29555;45.350;5.578;2024-01-25T00:42:42;6.13;;;2.92;;
43891;SDS011;29555;45.350;5.578;2024-01-25T00:45:10;6.57;;;3.67;;
43891;SDS011;29555;45.350;5.578;2024-01-25T00:47:36;3.92;;;3.55;;
43891;SDS011;29555;45.350;5.578;2024-01-25T00:50:02;7.22;;;3.15;;
43891;SDS011;29555;45.350;5.578;2024-01-25T00:52:28;8.50;;;4.13;;
43891;SDS011;29555;45.350;5.578;2024-01-25T00:54:53;5.28;;;3.05;;
43891;SDS011;29555;45.350;5.578;2024-01-25T00:57:19;5.95;;;3.30;;
43891;SDS011;29555;45.350;5.578;2024-01-25T00:59:45;5.97;;;3.90;;
43891;SDS011;29555;45.350;5.578;2024-01-25T01:02:11;5.15;;;3.38;;
43891;SDS011;29555;45.350;5.578;2024-01-25T01:04:38;8.07;;;3.92;;
43891;SDS011;29555;45.350;5.578;2024-01-25T01:07:04;5.28;;;2.95;;
43891;SDS011;29555;45.350;5.578;2024-01-25T01:09:29;4.93;;;3.70;;
43891;SDS011;29555;45.350;5.578;2024-01-25T01:11:55;9.32;;;4.55;;
43891;SDS011;29555;45.350;5.578;2024-01-25T01:14:20;7.10;;;3.83;;
43891;SDS011;29555;45.350;5.578;2024-01-25T01:16:46;4.93;;;4.15;;
43891;SDS011;29555;45.350;5.578;2024-01-25T01:19:11;9.15;;;4.35;;
43891;SDS011;29555;45.350;5.578;2024-01-25T01:21:37;5.40;;;4.07;;
43891;SDS011;29555;45.350;5.578;2024-01-25T01:24:03;5.78;;;4.28;;
43891;SDS011;29555;45.350;5.578;2024-01-25T01:26:29;5.53;;;4.22;;
43891;SDS011;29555;45.350;5.578;2024-01-25T01:28:54;8.00;;;4.22;;
43891;SDS011;29555;45.350;5.578;2024-01-25T01:31:20;12.18;;;4.40;;
43891;SDS011;29555;45.350;5.578;2024-01-25T01:33:46;5.00;;;3.95;;
43891;SDS011;29555;45.350;5.578;2024-01-25T01:36:11;10.93;;;3.97;;
43891;SDS011;29555;45.350;5.578;2024-01-25T01:38:37;8.48;;;3.38;;
43891;SDS011;29555;45.350;5.578;2024-01-25T01:41:02;5.28;;;3.60;;
43891;SDS011;29555;45.350;5.578;2024-01-25T01:43:28;5.05;;;4.03;;
43891;SDS011;29555;45.350;5.578;2024-01-25T01:45:53;6.28;;;3.72;;
43891;SDS011;29555;45.350;5.578;2024-01-25T01:48:23;8.77;;;4.45;;
43891;SDS011;29555;45.350;5.578;2024-01-25T01:50:48;5.93;;;3.55;;
43891;SDS011;29555;45.350;5.578;2024-01-25T01:53:13;8.43;;;3.97;;
43891;SDS011;29555;45.350;5.578;2024-01-25T01:55:40;4.13;;;3.25;;
43891;SDS011;29555;45.350;5.578;2024-01-25T01:58:06;7.20;;;4.00;;
43891;SDS011;29555;45.350;5.578;2024-01-25T02:00:32;5.65;;;4.03;;
43891;SDS011;29555;45.350;5.578;2024-01-25T02:02:58;5.32;;;4.03;;
43891;SDS011;29555;45.350;5.578;2024-01-25T02:05:24;6.53;;;4.25;;
43891;SDS011;29555;45.350;5.578;2024-01-25T02:07:50;7.47;;;4.78;;
43891;SDS011;29555;45.350;5.578;2024-01-25T02:10:17;5.20;;;4.43;;
43891;SDS011;29555;45.350;5.578;2024-01-25T02:12:43;8.30;;;4.72;;
43891;SDS011;29555;45.350;5.578;2024-01-25T02:15:08;8.20;;;5.00;;
43891;SDS011;29555;45.350;5.578;2024-01-25T02:17:34;7.40;;;4.82;;
43891;SDS011;29555;45.350;5.578;2024-01-25T02:19:59;8.32;;;4.70;;
43891;SDS011;29555;45.350;5.578;2024-01-25T02:22:27;9.32;;;4.20;;
43891;SDS011;29555;45.350;5.578;2024-01-25T02:24:52;6.68;;;5.07;;
43891;SDS011;29555;45.350;5.578;2024-01-25T02:27:18;8.18;;;4.68;;
43891;SDS011;29555;45.350;5.578;2024-01-25T02:29:43;6.13;;;4.68;;
43891;SDS011;29555;45.350;5.578;2024-01-25T02:32:08;6.15;;;4.15;;
43891;SDS011;29555;45.350;5.578;2024-01-25T02:34:34;10.45;;;5.38;;
43891;SDS011;29555;45.350;5.578;2024-01-25T02:36:59;11.63;;;4.07;;
43891;SDS011;29555;45.350;5.578;2024-01-25T02:39:25;5.95;;;4.05;;
43891;SDS011;29555;45.350;5.578;2024-01-25T02:41:50;9.43;;;4.97;;
43891;SDS011;29555;45.350;5.578;2024-01-25T02:44:15;17.55;;;4.05;;
43891;SDS011;29555;45.350;5.578;2024-01-25T02:46:41;8.60;;;4.47;;
43891;SDS011;29555;45.350;5.578;2024-01-25T02:49:06;4.13;;;3.38;;
43891;SDS011;29555;45.350;5.578;2024-01-25T02:51:32;6.72;;;3.83;;
43891;SDS011;29555;45.350;5.578;2024-01-25T02:53:57;6.13;;;3.90;;
43891;SDS011;29555;45.350;5.578;2024-01-25T02:56:22;5.82;;;3.65;;
43891;SDS011;29555;45.350;5.578;2024-01-25T02:58:48;9.05;;;3.88;;
43891;SDS011;29555;45.350;5.578;2024-01-25T03:01:13;5.75;;;4.50;;
43891;SDS011;29555;45.350;5.578;2024-01-25T03:03:39;4.88;;;4.05;;
43891;SDS011;29555;45.350;5.578;2024-01-25T03:06:05;6.97;;;3.42;;
43891;SDS011;29555;45.350;5.578;2024-01-25T03:08:31;5.85;;;3.63;;
43891;SDS011;29555;45.350;5.578;2024-01-25T03:10:56;12.98;;;4.65;;
43891;SDS011;29555;45.350;5.578;2024-01-25T03:13:21;6.88;;;3.15;;
43891;SDS011;29555;45.350;5.578;2024-01-25T03:15:47;4.38;;;3.50;;
43891;SDS011;29555;45.350;5.578;2024-01-25T03:18:12;5.28;;;3.28;;
43891;SDS011;29555;45.350;5.578;2024-01-25T03:20:38;7.20;;;3.28;;
43891;SDS011;29555;45.350;5.578;2024-01-25T03:23:03;7.60;;;3.97;;
43891;SDS011;29555;45.350;5.578;2024-01-25T03:25:29;5.10;;;3.50;;
43891;SDS011;29555;45.350;5.578;2024-01-25T03:27:56;5.47;;;3.35;;
43891;SDS011;29555;45.350;5.578;2024-01-25T03:30:21;11.88;;;5.65;;
43891;SDS011;29555;45.350;5.578;2024-01-25T03:32:47;6.07;;;3.90;;
43891;SDS011;29555;45.350;5.578;2024-01-25T03:35:12;5.93;;;4.13;;
43891;SDS011;29555;45.350;5.578;2024-01-25T03:37:38;5.97;;;4.45;;
43891;SDS011;29555;45.350;5.578;2024-01-25T03:40:03;9.77;;;4.88;;
43891;SDS011;29555;45.350;5.578;2024-01-25T03:42:29;4.45;;;4.05;;
43891;SDS011;29555;45.350;5.578;2024-01-25T03:44:55;5.88;;;4.75;;
43891;SDS011;29555;45.350;5.578;2024-01-25T03:47:20;5.95;;;4.63;;
43891;SDS011;29555;45.350;5.578;2024-01-25T03:49:46;11.27;;;4.30;;
43891;SDS011;29555;45.350;5.578;2024-01-25T03:52:11;7.38;;;5.43;;
43891;SDS011;29555;45.350;5.578;2024-01-25T03:54:36;7.13;;;4.40;;
43891;SDS011;29555;45.350;5.578;2024-01-25T03:57:02;7.93;;;5.15;;
43891;SDS011;29555;45.350;5.578;2024-01-25T03:59:28;4.60;;;3.63;;
43891;SDS011;29555;45.350;5.578;2024-01-25T04:01:53;13.73;;;5.40;;
43891;SDS011;29555;45.350;5.578;2024-01-25T04:04:19;17.65;;;4.13;;
43891;SDS011;29555;45.350;5.578;2024-01-25T04:06:44;7.85;;;3.63;;
43891;SDS011;29555;45.350;5.578;2024-01-25T04:09:13;9.23;;;4.22;;
43891;SDS011;29555;45.350;5.578;2024-01-25T04:11:40;4.28;;;3.85;;
43891;SDS011;29555;45.350;5.578;2024-01-25T04:14:05;3.95;;;3.58;;
43891;SDS011;29555;45.350;5.578;2024-01-25T04:16:31;6.55;;;5.10;;
43891;SDS011;29555;45.350;5.578;2024-01-25T04:18:58;5.18;;;4.00;;
43891;SDS011;29555;45.350;5.578;2024-01-25T04:21:23;4.50;;;3.70;;
43891;SDS011;29555;45.350;5.578;2024-01-25T04:23:49;4.18;;;3.72;;
43891;SDS011;29555;45.350;5.578;2024-01-25T04:26:14;8.82;;;4.57;;
43891;SDS011;29555;45.350;5.578;2024-01-25T04:28:41;9.52;;;4.97;;
43891;SDS011;29555;45.350;5.578;2024-01-25T04:31:07;8.52;;;4.82;;
43891;SDS011;29555;45.350;5.578;2024-01-25T04:33:32;9.27;;;4.45;;
43891;SDS011;29555;45.350;5.578;2024-01-25T04:35:57;7.38;;;4.85;;
43891;SDS011;29555;45.350;5.578;2024-01-25T04:38:23;9.77;;;6.03;;
43891;SDS011;29555;45.350;5.578;2024-01-25T04:40:48;6.95;;;4.30;;
43891;SDS011;29555;45.350;5.578;2024-01-25T04:43:14;8.40;;;5.13;;
43891;SDS011;29555;45.350;5.578;2024-01-25T04:45:39;5.75;;;4.10;;
43891;SDS011;29555;45.350;5.578;2024-01-25T04:48:05;6.80;;;4.88;;
43891;SDS011;29555;45.350;5.578;2024-01-25T04:50:31;14.90;;;5.43;;
43891;SDS011;29555;45.350;5.578;2024-01-25T04:52:56;7.97;;;5.13;;
43891;SDS011;29555;45.350;5.578;2024-01-25T04:55:22;6.43;;;4.95;;
43891;SDS011;29555;45.350;5.578;2024-01-25T04:57:47;7.68;;;4.20;;
43891;SDS011;29555;45.350;5.578;2024-01-25T05:00:15;9.80;;;4.38;;
43891;SDS011;29555;45.350;5.578;2024-01-25T05:02:41;7.03;;;4.00;;
43891;SDS011;29555;45.350;5.578;2024-01-25T05:05:07;8.63;;;4.88;;
43891;SDS011;29555;45.350;5.578;2024-01-25T05:07:32;9.48;;;5.70;;
43891;SDS011;29555;45.350;5.578;2024-01-25T05:09:58;9.45;;;4.93;;
43891;SDS011;29555;45.350;5.578;2024-01-25T05:12:23;11.85;;;5.30;;
43891;SDS011;29555;45.350;5.578;2024-01-25T05:14:48;9.00;;;3.72;;
43891;SDS011;29555;45.350;5.578;2024-01-25T05:17:14;6.60;;;5.10;;
43891;SDS011;29555;45.350;5.578;2024-01-25T05:19:39;9.55;;;6.03;;
43891;SDS011;29555;45.350;5.578;2024-01-25T05:22:04;6.70;;;4.55;;
43891;SDS011;29555;45.350;5.578;2024-01-25T05:24:32;7.05;;;5.22;;
43891;SDS011;29555;45.350;5.578;2024-01-25T05:26:58;11.20;;;4.95;;
43891;SDS011;29555;45.350;5.578;2024-01-25T05:29:24;5.63;;;4.88;;
43891;SDS011;29555;45.350;5.578;2024-01-25T05:31:49;81.43;;;34.70;;
43891;SDS011;29555;45.350;5.578;2024-01-25T05:34:15;28.92;;;12.98;;
43891;SDS011;29555;45.350;5.578;2024-01-25T05:36:40;21.52;;;12.05;;
43891;SDS011;29555;45.350;5.578;2024-01-25T05:39:06;16.08;;;8.95;;
43891;SDS011;29555;45.350;5.578;2024-01-25T05:41:32;15.70;;;7.57;;
43891;SDS011;29555;45.350;5.578;2024-01-25T05:43:58;8.73;;;7.10;;
43891;SDS011;29555;45.350;5.578;2024-01-25T05:46:24;20.85;;;7.38;;
43891;SDS011;29555;45.350;5.578;2024-01-25T05:48:50;15.80;;;5.55;;
43891;SDS011;29555;45.350;5.578;2024-01-25T05:51:15;12.23;;;5.70;;
43891;SDS011;29555;45.350;5.578;2024-01-25T05:53:40;26.42;;;13.52;;
43891;SDS011;29555;45.350;5.578;2024-01-25T05:56:06;25.33;;;12.05;;
43891;SDS011;29555;45.350;5.578;2024-01-25T05:58:31;52.13;;;22.65;;
43891;SDS011;29555;45.350;5.578;2024-01-25T06:00:57;76.78;;;31.00;;
43891;SDS011;29555;45.350;5.578;2024-01-25T06:03:22;50.55;;;23.00;;
43891;SDS011;29555;45.350;5.578;2024-01-25T06:05:47;30.30;;;16.80;;
43891;SDS011;29555;45.350;5.578;2024-01-25T06:08:13;11.35;;;5.85;;
43891;SDS011;29555;45.350;5.578;2024-01-25T06:10:38;6.55;;;4.88;;
43891;SDS011;29555;45.350;5.578;2024-01-25T06:13:04;8.55;;;4.72;;
43891;SDS011;29555;45.350;5.578;2024-01-25T06:15:30;10.73;;;6.38;;
43891;SDS011;29555;45.350;5.578;2024-01-25T06:17:56;11.52;;;5.85;;
43891;SDS011;29555;45.350;5.578;2024-01-25T06:20:22;7.93;;;4.90;;
43891;SDS011;29555;45.350;5.578;2024-01-25T06:22:47;7.28;;;5.53;;
43891;SDS011;29555;45.350;5.578;2024-01-25T06:25:13;5.68;;;4.35;;
43891;SDS011;29555;45.350;5.578;2024-01-25T06:27:38;7.72;;;4.63;;
43891;SDS011;29555;45.350;5.578;2024-01-25T06:30:04;6.88;;;4.88;;
43891;SDS011;29555;45.350;5.578;2024-01-25T06:32:30;8.38;;;5.22;;
43891;SDS011;29555;45.350;5.578;2024-01-25T06:34:56;8.70;;;5.15;;
43891;SDS011;29555;45.350;5.578;2024-01-25T06:37:21;7.20;;;4.95;;
43891;SDS011;29555;45.350;5.578;2024-01-25T06:39:47;10.32;;;6.47;;
43891;SDS011;29555;45.350;5.578;2024-01-25T06:42:12;11.23;;;5.60;;
43891;SDS011;29555;45.350;5.578;2024-01-25T06:44:38;6.53;;;5.40;;
43891;SDS011;29555;45.350;5.578;2024-01-25T06:47:03;8.02;;;5.55;;
43891;SDS011;29555;45.350;5.578;2024-01-25T06:49:29;8.68;;;5.90;;
43891;SDS011;29555;45.350;5.578;2024-01-25T06:51:54;8.07;;;6.00;;
43891;SDS011;29555;45.350;5.578;2024-01-25T06:54:19;10.85;;;7.35;;
43891;SDS011;29555;45.350;5.578;2024-01-25T06:56:45;16.23;;;6.10;;
43891;SDS011;29555;45.350;5.578;2024-01-25T06:59:10;11.73;;;5.60;;
43891;SDS011;29555;45.350;5.578;2024-01-25T07:01:36;7.40;;;4.30;;
43891;SDS011;29555;45.350;5.578;2024-01-25T07:04:01;11.65;;;5.85;;
43891;SDS011;29555;45.350;5.578;2024-01-25T07:06:28;14.90;;;6.13;;
43891;SDS011;29555;45.350;5.578;2024-01-25T07:08:54;11.65;;;6.38;;
43891;SDS011;29555;45.350;5.578;2024-01-25T07:11:19;11.23;;;6.88;;
43891;SDS011;29555;45.350;5.578;2024-01-25T07:13:45;23.27;;;7.13;;
43891;SDS011;29555;45.350;5.578;2024-01-25T07:16:11;15.73;;;6.47;;
43891;SDS011;29555;45.350;5.578;2024-01-25T07:18:36;9.70;;;5.90;;
43891;SDS011;29555;45.350;5.578;2024-01-25T07:21:02;9.77;;;6.97;;
43891;SDS011;29555;45.350;5.578;2024-01-25T07:23:28;10.95;;;6.68;;
43891;SDS011;29555;45.350;5.578;2024-01-25T07:25:54;13.57;;;7.03;;
43891;SDS011;29555;45.350;5.578;2024-01-25T07:28:20;7.68;;;5.75;;
43891;SDS011;29555;45.350;5.578;2024-01-25T07:30:48;12.52;;;6.70;;
43891;SDS011;29555;45.350;5.578;2024-01-25T07:33:14;12.32;;;6.10;;
43891;SDS011;29555;45.350;5.578;2024-01-25T07:39:21;14.48;;;7.25;;
43891;SDS011;29555;45.350;5.578;2024-01-25T07:41:46;13.93;;;7.68;;
43891;SDS011;29555;45.350;5.578;2024-01-25T07:44:12;10.65;;;6.65;;
43891;SDS011;29555;45.350;5.578;2024-01-25T07:46:38;12.55;;;6.40;;
43891;SDS011;29555;45.350;5.578;2024-01-25T07:49:04;15.73;;;7.05;;
43891;SDS011;29555;45.350;5.578;2024-01-25T07:51:30;7.75;;;5.63;;
43891;SDS011;29555;45.350;5.578;2024-01-25T07:53:55;9.52;;;5.80;;
43891;SDS011;29555;45.350;5.578;2024-01-25T07:56:21;11.15;;;6.75;;
43891;SDS011;29555;45.350;5.578;2024-01-25T07:58:47;7.70;;;5.15;;
43891;SDS011;29555;45.350;5.578;2024-01-25T08:01:17;12.90;;;6.93;;
43891;SDS011;29555;45.350;5.578;2024-01-25T08:03:43;19.83;;;7.90;;
43891;SDS011;29555;45.350;5.578;2024-01-25T08:06:09;13.07;;;7.40;;
43891;SDS011;29555;45.350;5.578;2024-01-25T08:08:34;18.63;;;8.38;;
43891;SDS011;29555;45.350;5.578;2024-01-25T08:11:00;12.32;;;7.60;;
43891;SDS011;29555;45.350;5.578;2024-01-25T08:13:25;16.33;;;8.10;;
43891;SDS011;29555;45.350;5.578;2024-01-25T08:15:53;11.40;;;4.70;;
43891;SDS011;29555;45.350;5.578;2024-01-25T08:18:18;15.15;;;8.38;;
43891;SDS011;29555;45.350;5.578;2024-01-25T08:20:44;58.42;;;22.42;;
43891;SDS011;29555;45.350;5.578;2024-01-25T08:23:09;53.80;;;24.50;;
43891;SDS011;29555;45.350;5.578;2024-01-25T08:25:35;22.17;;;11.10;;
43891;SDS011;29555;45.350;5.578;2024-01-25T08:28:01;40.05;;;17.13;;
43891;SDS011;29555;45.350;5.578;2024-01-25T08:30:26;41.00;;;20.55;;
43891;SDS011;29555;45.350;5.578;2024-01-25T08:32:52;47.60;;;22.55;;
43891;SDS011;29555;45.350;5.578;2024-01-25T08:35:17;41.05;;;22.02;;
43891;SDS011;29555;45.350;5.578;2024-01-25T08:37:43;12.55;;;8.35;;
43891;SDS011;29555;45.350;5.578;2024-01-25T08:40:08;12.38;;;6.95;;
43891;SDS011;29555;45.350;5.578;2024-01-25T08:42:35;21.05;;;7.10;;
43891;SDS011;29555;45.350;5.578;2024-01-25T08:45:00;15.40;;;7.53;;
43891;SDS011;29555;45.350;5.578;2024-01-25T08:47:26;14.32;;;7.28;;
43891;SDS011;29555;45.350;5.578;2024-01-25T08:49:51;26.35;;;10.38;;
43891;SDS011;29555;45.350;5.578;2024-01-25T08:52:17;14.77;;;9.15;;
43891;SDS011;29555;45.350;5.578;2024-01-25T08:54:42;18.67;;;10.48;;
43891;SDS011;29555;45.350;5.578;2024-01-25T08:57:08;14.95;;;8.10;;
43891;SDS011;29555;45.350;5.578;2024-01-25T08:59:34;23.42;;;13.80;;
43891;SDS011;29555;45.350;5.578;2024-01-25T09:02:05;29.08;;;15.85;;
43891;SDS011;29555;45.350;5.578;2024-01-25T09:04:31;20.15;;;12.30;;
43891;SDS011;29555;45.350;5.578;2024-01-25T09:06:57;26.80;;;15.25;;
43891;SDS011;29555;45.350;5.578;2024-01-25T09:09:23;18.23;;;11.07;;
43891;SDS011;29555;45.350;5.578;2024-01-25T09:11:48;12.80;;;7.95;;
43891;SDS011;29555;45.350;5.578;2024-01-25T09:14:14;35.92;;;12.73;;
43891;SDS011;29555;45.350;5.578;2024-01-25T09:16:39;50.53;;;28.23;;
43891;SDS011;29555;45.350;5.578;2024-01-25T09:19:05;32.53;;;15.68;;
43891;SDS011;29555;45.350;5.578;2024-01-25T09:21:32;11.90;;;7.63;;
43891;SDS011;29555;45.350;5.578;2024-01-25T09:23:57;17.70;;;9.63;;
43891;SDS011;29555;45.350;5.578;2024-01-25T09:26:24;13.93;;;7.18;;
43891;SDS011;29555;45.350;5.578;2024-01-25T09:28:50;11.85;;;6.25;;
43891;SDS011;29555;45.350;5.578;2024-01-25T09:31:15;15.95;;;7.28;;
43891;SDS011;29555;45.350;5.578;2024-01-25T09:33:41;8.57;;;5.55;;
43891;SDS011;29555;45.350;5.578;2024-01-25T09:36:06;28.98;;;15.77;;
43891;SDS011;29555;45.350;5.578;2024-01-25T09:38:31;16.85;;;8.60;;
43891;SDS011;29555;45.350;5.578;2024-01-25T09:40:57;14.27;;;6.75;;
43891;SDS011;29555;45.350;5.578;2024-01-25T09:43:22;9.57;;;6.78;;
43891;SDS011;29555;45.350;5.578;2024-01-25T09:45:53;8.77;;;6.00;;
43891;SDS011;29555;45.350;5.578;2024-01-25T09:48:22;33.30;;;18.15;;
43891;SDS011;29555;45.350;5.578;2024-01-25T09:50:48;13.63;;;9.95;;
43891;SDS011;29555;45.350;5.578;2024-01-25T09:53:32;12.70;;;8.10;;
43891;SDS011;29555;45.350;5.578;2024-01-25T10:01:03;11.75;;;6.85;;
43891;SDS011;29555;45.350;5.578;2024-01-25T10:03:30;9.65;;;5.45;;
43891;SDS011;29555;45.350;5.578;2024-01-25T10:05:55;7.22;;;4.55;;
43891;SDS011;29555;45.350;5.578;2024-01-25T10:08:21;10.05;;;5.38;;
43891;SDS011;29555;45.350;5.578;2024-01-25T10:10:49;6.45;;;5.22;;
43891;SDS011;29555;45.350;5.578;2024-01-25T10:13:14;8.32;;;5.40;;
43891;SDS011;29555;45.350;5.578;2024-01-25T10:15:39;13.68;;;5.90;;
43891;SDS011;29555;45.350;5.578;2024-01-25T10:18:07;11.77;;;6.32;;
43891;SDS011;29555;45.350;5.578;2024-01-25T10:20:38;8.20;;;6.00;;
43891;SDS011;29555;45.350;5.578;2024-01-25T10:23:12;7.28;;;5.20;;
43891;SDS011;29555;45.350;5.578;2024-01-25T10:25:37;14.68;;;9.93;;
43891;SDS011;29555;45.350;5.578;2024-01-25T10:28:04;15.55;;;7.07;;
43891;SDS011;29555;45.350;5.578;2024-01-25T10:30:31;10.15;;;6.30;;
43891;SDS011;29555;45.350;5.578;2024-01-25T10:32:58;9.50;;;6.25;;
43891;SDS011;29555;45.350;5.578;2024-01-25T10:35:24;9.30;;;6.35;;
43891;SDS011;29555;45.350;5.578;2024-01-25T10:37:51;8.82;;;5.53;;
43891;SDS011;29555;45.350;5.578;2024-01-25T10:40:18;10.60;;;6.03;;
43891;SDS011;29555;45.350;5.578;2024-01-25T10:42:44;8.98;;;6.15;;
43891;SDS011;29555;45.350;5.578;2024-01-25T10:45:09;8.88;;;4.97;;
43891;SDS011;29555;45.350;5.578;2024-01-25T10:47:35;11.35;;;5.43;;
43891;SDS011;29555;45.350;5.578;2024-01-25T10:50:03;4.88;;;4.15;;
43891;SDS011;29555;45.350;5.578;2024-01-25T10:52:30;11.45;;;4.63;;
43891;SDS011;29555;45.350;5.578;2024-01-25T10:54:57;10.90;;;5.15;;
43891;SDS011;29555;45.350;5.578;2024-01-25T10:57:23;14.10;;;7.78;;
43891;SDS011;29555;45.350;5.578;2024-01-25T10:59:48;8.88;;;5.80;;
43891;SDS011;29555;45.350;5.578;2024-01-25T11:02:14;6.03;;;3.75;;
43891;SDS011;29555;45.350;5.578;2024-01-25T11:04:51;8.18;;;5.20;;
43891;SDS011;29555;45.350;5.578;2024-01-25T11:07:19;12.13;;;8.07;;
43891;SDS011;29555;45.350;5.578;2024-01-25T11:09:44;7.05;;;4.00;;
43891;SDS011;29555;45.350;5.578;2024-01-25T11:12:12;5.90;;;3.85;;
43891;SDS011;29555;45.350;5.578;2024-01-25T11:14:39;10.63;;;5.15;;
43891;SDS011;29555;45.350;5.578;2024-01-25T11:17:19;9.43;;;5.13;;
43891;SDS011;29555;45.350;5.578;2024-01-25T11:19:47;7.93;;;3.90;;
43891;SDS011;29555;45.350;5.578;2024-01-25T11:22:14;8.70;;;4.15;;
43891;SDS011;29555;45.350;5.578;2024-01-25T11:24:39;7.03;;;3.10;;
43891;SDS011;29555;45.350;5.578;2024-01-25T11:27:05;6.75;;;3.50;;
43891;SDS011;29555;45.350;5.578;2024-01-25T11:29:31;2.60;;;2.40;;
43891;SDS011;29555;45.350;5.578;2024-01-25T11:31:58;4.40;;;2.92;;
43891;SDS011;29555;45.350;5.578;2024-01-25T11:34:23;4.80;;;2.90;;
43891;SDS011;29555;45.350;5.578;2024-01-25T11:36:49;5.18;;;3.72;;
43891;SDS011;29555;45.350;5.578;2024-01-25T11:39:15;6.80;;;3.80;;
43891;SDS011;29555;45.350;5.578;2024-01-25T11:41:42;5.00;;;3.53;;
43891;SDS011;29555;45.350;5.578;2024-01-25T11:44:11;6.07;;;3.08;;
43891;SDS011;29555;45.350;5.578;2024-01-25T11:46:38;5.05;;;3.60;;
43891;SDS011;29555;45.350;5.578;2024-01-25T11:49:04;4.43;;;3.15;;
43891;SDS011;29555;45.350;5.578;2024-01-25T11:51:29;9.18;;;4.35;;
43891;SDS011;29555;45.350;5.578;2024-01-25T11:53:55;7.47;;;4.60;;
43891;SDS011;29555;45.350;5.578;2024-01-25T11:56:31;5.50;;;3.10;;
43891;SDS011;29555;45.350;5.578;2024-01-25T11:58:58;3.35;;;2.75;;
43891;SDS011;29555;45.350;5.578;2024-01-25T12:01:24;5.97;;;3.25;;
43891;SDS011;29555;45.350;5.578;2024-01-25T12:03:50;7.88;;;3.20;;
43891;SDS011;29555;45.350;5.578;2024-01-25T12:06:16;12.82;;;6.72;;
43891;SDS011;29555;45.350;5.578;2024-01-25T12:08:42;16.67;;;5.72;;
43891;SDS011;29555;45.350;5.578;2024-01-25T12:11:09;10.20;;;6.07;;
43891;SDS011;29555;45.350;5.578;2024-01-25T12:13:35;10.85;;;4.90;;
43891;SDS011;29555;45.350;5.578;2024-01-25T12:16:11;6.55;;;3.95;;
43891;SDS011;29555;45.350;5.578;2024-01-25T12:18:37;5.93;;;3.95;;
43891;SDS011;29555;45.350;5.578;2024-01-25T12:21:03;4.25;;;3.28;;
43891;SDS011;29555;45.350;5.578;2024-01-25T12:23:35;5.18;;;3.90;;
43891;SDS011;29555;45.350;5.578;2024-01-25T12:26:09;12.70;;;3.65;;
43891;SDS011;29555;45.350;5.578;2024-01-25T12:28:35;5.78;;;2.97;;
43891;SDS011;29555;45.350;5.578;2024-01-25T12:31:02;4.32;;;3.97;;
43891;SDS011;29555;45.350;5.578;2024-01-25T12:33:28;6.32;;;4.13;;
43891;SDS011;29555;45.350;5.578;2024-01-25T12:35:54;19.95;;;3.65;;
43891;SDS011;29555;45.350;5.578;2024-01-25T12:38:20;10.85;;;3.30;;
43891;SDS011;29555;45.350;5.578;2024-01-25T12:40:47;6.05;;;3.47;;
43891;SDS011;29555;45.350;5.578;2024-01-25T12:43:13;6.30;;;2.72;;
43891;SDS011;29555;45.350;5.578;2024-01-25T12:45:39;4.88;;;3.03;;
43891;SDS011;29555;45.350;5.578;2024-01-25T12:48:05;3.85;;;3.28;;
43891;SDS011;29555;45.350;5.578;2024-01-25T12:50:32;4.30;;;2.90;;
43891;SDS011;29555;45.350;5.578;2024-01-25T12:52:58;5.38;;;2.72;;
43891;SDS011;29555;45.350;5.578;2024-01-25T12:55:27;4.85;;;3.85;;
43891;SDS011;29555;45.350;5.578;2024-01-25T12:57:53;4.10;;;2.88;;
43891;SDS011;29555;45.350;5.578;2024-01-25T13:00:18;7.00;;;3.15;;
43891;SDS011;29555;45.350;5.578;2024-01-25T13:02:43;3.42;;;3.08;;
43891;SDS011;29555;45.350;5.578;2024-01-25T13:05:09;4.18;;;2.42;;
43891;SDS011;29555;45.350;5.578;2024-01-25T13:07:34;4.60;;;2.47;;
43891;SDS011;29555;45.350;5.578;2024-01-25T13:10:00;5.20;;;3.53;;
43891;SDS011;29555;45.350;5.578;2024-01-25T13:12:25;5.28;;;2.83;;
43891;SDS011;29555;45.350;5.578;2024-01-25T13:14:50;5.05;;;2.67;;
43891;SDS011;29555;45.350;5.578;2024-01-25T13:17:16;6.13;;;3.33;;
43891;SDS011;29555;45.350;5.578;2024-01-25T13:19:41;6.78;;;3.90;;
43891;SDS011;29555;45.350;5.578;2024-01-25T13:22:06;4.05;;;3.15;;
43891;SDS011;29555;45.350;5.578;2024-01-25T13:24:32;7.55;;;3.35;;
43891;SDS011;29555;45.350;5.578;2024-01-25T13:26:57;2.95;;;2.55;;
43891;SDS011;29555;45.350;5.578;2024-01-25T13:29:23;4.40;;;2.90;;
43891;SDS011;29555;45.350;5.578;2024-01-25T13:31:48;3.22;;;2.60;;
43891;SDS011;29555;45.350;5.578;2024-01-25T13:34:14;5.50;;;3.47;;
43891;SDS011;29555;45.350;5.578;2024-01-25T13:36:39;2.60;;;2.05;;
43891;SDS011;29555;45.350;5.578;2024-01-25T13:39:05;3.40;;;2.10;;
43891;SDS011;29555;45.350;5.578;2024-01-25T13:41:30;8.73;;;2.50;;
43891;SDS011;29555;45.350;5.578;2024-01-25T13:43:55;3.25;;;2.38;;
43891;SDS011;29555;45.350;5.578;2024-01-25T13:46:21;4.43;;;2.83;;
43891;SDS011;29555;45.350;5.578;2024-01-25T13:48:46;6.65;;;2.22;;
43891;SDS011;29555;45.350;5.578;2024-01-25T13:51:12;3.53;;;2.92;;
43891;SDS011;29555;45.350;5.578;2024-01-25T13:53:37;6.80;;;2.33;;
43891;SDS011;29555;45.350;5.578;2024-01-25T13:56:03;3.08;;;2.45;;
43891;SDS011;29555;45.350;5.578;2024-01-25T13:58:28;42.67;;;12.70;;
43891;SDS011;29555;45.350;5.578;2024-01-25T14:00:54;34.50;;;14.02;;
43891;SDS011;29555;45.350;5.578;2024-01-25T14:03:19;15.60;;;7.82;;
43891;SDS011;29555;45.350;5.578;2024-01-25T14:05:45;14.73;;;6.63;;
43891;SDS011;29555;45.350;5.578;2024-01-25T14:08:10;15.48;;;8.20;;
43891;SDS011;29555;45.350;5.578;2024-01-25T14:10:36;21.50;;;9.50;;
43891;SDS011;29555;45.350;5.578;2024-01-25T14:13:01;48.50;;;19.13;;
43891;SDS011;29555;45.350;5.578;2024-01-25T14:15:27;112.40;;;48.15;;
43891;SDS011;29555;45.350;5.578;2024-01-25T14:17:53;70.43;;;29.50;;
43891;SDS011;29555;45.350;5.578;2024-01-25T14:20:18;40.30;;;17.27;;
43891;SDS011;29555;45.350;5.578;2024-01-25T14:22:44;16.77;;;8.00;;
43891;SDS011;29555;45.350;5.578;2024-01-25T14:25:09;12.98;;;7.38;;
43891;SDS011;29555;45.350;5.578;2024-01-25T14:27:35;27.23;;;7.50;;
43891;SDS011;29555;45.350;5.578;2024-01-25T14:30:00;6.53;;;5.18;;
43891;SDS011;29555;45.350;5.578;2024-01-25T14:32:28;6.72;;;4.32;;
43891;SDS011;29555;45.350;5.578;2024-01-25T14:34:54;72.32;;;35.75;;
43891;SDS011;29555;45.350;5.578;2024-01-25T14:37:19;30.15;;;14.88;;
43891;SDS011;29555;45.350;5.578;2024-01-25T14:39:44;26.52;;;14.05;;
43891;SDS011;29555;45.350;5.578;2024-01-25T14:42:10;15.55;;;7.60;;